createdAt,value
2018-06-11T00:01:55.657Z,21.69
2018-06-11T00:04:24.116Z,21.87
2018-06-11T00:06:52.516Z,21.95
2018-06-11T00:09:20.965Z,21.95
2018-06-11T00:11:49.435Z,22.00
2018-06-11T00:14:17.864Z,21.96
2018-06-11T00:16:46.612Z,21.88
2018-06-11T00:19:15.085Z,21.77
2018-06-11T00:21:43.652Z,21.71
2018-06-11T00:24:12.609Z,21.69
2018-06-11T00:26:41.387Z,21.63
2018-06-11T00:29:09.806Z,21.51
2018-06-11T00:31:38.259Z,21.56
2018-06-11T00:34:07.499Z,21.36
2018-06-11T00:36:36.005Z,21.40
2018-06-11T00:39:06.096Z,21.53
2018-06-11T00:41:34.486Z,21.56
2018-06-11T00:44:03.140Z,21.56
2018-06-11T00:46:31.577Z,21.53
2018-06-11T00:49:00.175Z,21.53
2018-06-11T00:51:28.662Z,21.55
2018-06-11T00:53:57.237Z,21.48
2018-06-11T00:56:25.714Z,21.50
2018-06-11T00:58:54.516Z,21.49
2018-06-11T01:01:22.969Z,21.45
2018-06-11T01:03:51.789Z,21.35
2018-06-11T01:06:20.260Z,21.29
2018-06-11T01:08:48.703Z,21.16
2018-06-11T01:11:17.222Z,21.12
2018-06-11T01:13:45.685Z,21.11
2018-06-11T01:16:14.169Z,21.17
2018-06-11T01:18:42.622Z,21.14
2018-06-11T01:21:11.124Z,21.09
2018-06-11T01:23:39.529Z,21.10
2018-06-11T01:26:08.126Z,21.12
2018-06-11T01:28:36.591Z,21.09
2018-06-11T01:31:05.006Z,21.08
2018-06-11T01:33:33.475Z,21.05
2018-06-11T01:36:01.899Z,21.04
2018-06-11T01:38:30.580Z,21.09
2018-06-11T01:40:59.182Z,21.09
2018-06-11T01:43:27.631Z,20.97
2018-06-11T01:45:56.064Z,21.00
2018-06-11T01:48:24.558Z,20.98
2018-06-11T01:50:52.952Z,20.97
2018-06-11T01:53:21.886Z,20.96
2018-06-11T01:55:50.391Z,20.98
2018-06-11T01:58:18.802Z,20.98
2018-06-11T02:00:47.293Z,20.68
2018-06-11T02:03:16.002Z,20.66
2018-06-11T02:05:44.414Z,20.81
2018-06-11T02:08:12.932Z,20.87
2018-06-11T02:10:42.046Z,20.88
2018-06-11T02:13:10.555Z,20.87
2018-06-11T02:15:38.996Z,20.92
2018-06-11T02:18:07.470Z,20.93
2018-06-11T02:20:36.015Z,20.93
2018-06-11T02:23:04.593Z,20.96
2018-06-11T02:25:32.989Z,20.99
2018-06-11T02:28:01.891Z,21.00
2018-06-11T02:30:30.381Z,20.91
2018-06-11T02:32:58.845Z,20.90
2018-06-11T02:35:27.367Z,20.87
2018-06-11T02:37:55.796Z,20.80
2018-06-11T02:40:24.238Z,20.57
2018-06-11T02:42:52.670Z,20.48
2018-06-11T02:45:21.080Z,20.47
2018-06-11T02:47:49.502Z,20.39
2018-06-11T02:50:17.930Z,20.33
2018-06-11T02:52:46.443Z,20.32
2018-06-11T02:55:14.873Z,20.33
2018-06-11T02:57:44.686Z,20.37
2018-06-11T03:00:13.331Z,20.32
2018-06-11T03:02:41.784Z,20.31
2018-06-11T03:05:10.351Z,20.26
2018-06-11T03:07:38.810Z,20.35
2018-06-11T03:10:07.265Z,20.30
2018-06-11T03:12:35.667Z,20.25
2018-06-11T03:15:04.128Z,20.17
2018-06-11T03:17:32.530Z,20.15
2018-06-11T03:20:00.946Z,20.21
2018-06-11T03:22:29.475Z,20.27
2018-06-11T03:24:57.988Z,20.29
2018-06-11T03:27:26.451Z,20.32
2018-06-11T03:29:55.618Z,20.34
2018-06-11T03:32:24.053Z,20.34
2018-06-11T03:34:52.609Z,20.28
2018-06-11T03:37:20.995Z,20.23
2018-06-11T03:39:49.393Z,20.26
2018-06-11T03:42:17.978Z,20.33
2018-06-11T03:44:46.354Z,20.26
2018-06-11T03:47:14.783Z,20.24
2018-06-11T03:49:43.177Z,20.35
2018-06-11T03:52:11.611Z,20.41
2018-06-11T03:54:40.056Z,20.47
2018-06-11T03:57:08.573Z,20.52
2018-06-11T03:59:37.028Z,20.38
2018-06-11T04:02:05.664Z,20.50
2018-06-11T04:04:34.133Z,20.50
2018-06-11T04:07:02.606Z,20.49
2018-06-11T04:09:31.635Z,20.48
2018-06-11T04:12:00.054Z,20.50
2018-06-11T04:14:28.503Z,20.48
2018-06-11T04:16:56.971Z,20.49
2018-06-11T04:19:25.448Z,20.43
2018-06-11T04:21:56.693Z,20.42
2018-06-11T04:24:25.132Z,20.37
2018-06-11T04:26:54.305Z,20.32
2018-06-11T04:29:22.786Z,20.43
2018-06-11T04:31:51.391Z,20.24
2018-06-11T04:34:19.833Z,20.36
2018-06-11T04:36:48.365Z,20.40
2018-06-11T04:39:16.927Z,20.47
2018-06-11T04:41:52.825Z,20.31
2018-06-11T04:44:23.826Z,20.38
2018-06-11T04:46:52.251Z,20.43
2018-06-11T04:49:20.724Z,20.49
2018-06-11T04:51:49.192Z,20.52
2018-06-11T04:54:17.718Z,20.61
2018-06-11T04:56:46.226Z,20.57
2018-06-11T04:59:14.782Z,20.38
2018-06-11T05:01:43.232Z,20.57
2018-06-11T05:04:11.645Z,20.57
2018-06-11T05:06:40.833Z,20.66
2018-06-11T05:09:09.366Z,20.79
2018-06-11T05:11:37.827Z,20.88
2018-06-11T05:14:06.430Z,20.82
2018-06-11T05:16:34.978Z,20.80
2018-06-11T05:19:03.532Z,20.73
2018-06-11T05:21:32.037Z,20.93
2018-06-11T05:24:00.546Z,20.82
2018-06-11T05:26:29.018Z,21.10
2018-06-11T05:28:57.475Z,21.27
2018-06-11T05:31:25.902Z,21.40
2018-06-11T05:33:55.044Z,21.51
2018-06-11T05:36:23.573Z,21.48
2018-06-11T05:38:52.035Z,21.54
2018-06-11T05:41:20.496Z,21.63
2018-06-11T05:43:48.981Z,21.73
2018-06-11T05:46:17.465Z,21.86
2018-06-11T05:48:46.668Z,21.69
2018-06-11T05:51:15.157Z,21.74
2018-06-11T05:53:43.645Z,21.83
2018-06-11T05:56:12.772Z,21.89
2018-06-11T05:58:41.893Z,22.00
2018-06-11T06:01:10.582Z,21.89
2018-06-11T06:03:39.001Z,22.07
2018-06-11T06:06:07.445Z,22.07
2018-06-11T06:08:36.637Z,22.08
2018-06-11T06:11:06.143Z,22.15
2018-06-11T06:13:35.094Z,22.08
2018-06-11T06:16:03.543Z,22.10
2018-06-11T06:18:31.987Z,22.24
2018-06-11T06:21:00.551Z,22.29
2018-06-11T06:23:28.982Z,22.55
2018-06-11T06:25:58.174Z,22.58
2018-06-11T06:28:27.420Z,22.59
2018-06-11T06:30:55.849Z,22.49
2018-06-11T06:33:24.344Z,22.45
2018-06-11T06:35:52.781Z,22.33
2018-06-11T06:38:21.186Z,22.59
2018-06-11T06:40:49.714Z,22.73
2018-06-11T06:43:18.308Z,23.00
2018-06-11T06:45:46.773Z,23.24
2018-06-11T06:48:15.186Z,23.36
2018-06-11T06:50:43.619Z,23.50
2018-06-11T06:53:12.623Z,23.65
2018-06-11T06:55:41.100Z,23.53
2018-06-11T06:58:09.552Z,23.81
2018-06-11T07:00:38.046Z,24.00
2018-06-11T07:03:06.502Z,24.10
2018-06-11T07:05:34.965Z,24.25
2018-06-11T07:08:03.508Z,24.25
2018-06-11T07:10:32.135Z,24.30
2018-06-11T07:13:00.616Z,24.38
2018-06-11T07:15:29.051Z,24.37
2018-06-11T07:17:58.068Z,24.18
2018-06-11T07:20:26.513Z,24.11
2018-06-11T07:22:55.065Z,24.12
2018-06-11T07:25:23.578Z,24.03
2018-06-11T07:27:58.351Z,24.08
2018-06-11T07:30:26.793Z,23.99
2018-06-11T07:32:55.321Z,23.89
2018-06-11T07:35:23.788Z,23.85
2018-06-11T07:37:52.192Z,23.88
2018-06-11T07:40:20.700Z,24.01
2018-06-11T07:42:49.230Z,23.96
2018-06-11T07:45:17.672Z,23.96
2018-06-11T07:47:46.066Z,24.09
2018-06-11T07:50:14.618Z,24.03
2018-06-11T07:52:43.048Z,24.04
2018-06-11T07:55:11.623Z,24.18
2018-06-11T07:57:40.069Z,24.19
2018-06-11T08:00:08.562Z,24.20
2018-06-11T08:02:37.145Z,24.23
2018-06-11T08:05:05.674Z,24.31
2018-06-11T08:07:34.201Z,24.28
2018-06-11T08:10:02.619Z,24.39
2018-06-11T08:12:37.702Z,24.54
2018-06-11T08:15:06.309Z,24.61
2018-06-11T08:17:34.818Z,24.79
2018-06-11T08:20:03.311Z,24.94
2018-06-11T08:22:31.912Z,25.10
2018-06-11T08:25:00.420Z,25.11
2018-06-11T08:27:29.692Z,25.09
2018-06-11T08:29:59.197Z,25.20
2018-06-11T08:32:27.715Z,25.13
2018-06-11T08:34:56.156Z,25.18
2018-06-11T08:37:24.675Z,25.30
2018-06-11T08:39:53.251Z,25.47
2018-06-11T08:42:21.859Z,25.40
2018-06-11T08:44:50.367Z,25.36
2018-06-11T08:47:18.870Z,25.45
2018-06-11T08:49:47.471Z,25.44
2018-06-11T08:52:16.032Z,25.40
2018-06-11T08:54:44.469Z,25.48
2018-06-11T08:57:13.056Z,25.59
2018-06-11T08:59:41.557Z,25.57
2018-06-11T09:02:10.337Z,25.52
2018-06-11T09:04:38.834Z,25.45
2018-06-11T09:07:07.497Z,25.37
2018-06-11T09:09:36.003Z,25.31
2018-06-11T09:12:04.508Z,25.24
2018-06-11T09:14:32.907Z,25.16
2018-06-11T09:17:01.669Z,25.19
2018-06-11T09:19:30.077Z,25.16
2018-06-11T09:21:58.516Z,25.21
2018-06-11T09:24:27.064Z,25.36
2018-06-11T09:26:55.549Z,25.46
2018-06-11T09:29:24.000Z,25.50
2018-06-11T09:31:52.640Z,25.64
2018-06-11T09:34:21.197Z,25.76
2018-06-11T09:36:50.416Z,25.81
2018-06-11T09:39:18.872Z,25.75
2018-06-11T09:41:47.455Z,25.89
2018-06-11T09:44:16.670Z,26.14
2018-06-11T09:46:45.252Z,26.48
2018-06-11T09:49:14.439Z,26.73
2018-06-11T09:51:43.327Z,26.98
2018-06-11T09:54:11.823Z,27.13
2018-06-11T09:56:40.288Z,27.49
2018-06-11T09:59:09.539Z,27.39
2018-06-11T10:01:38.241Z,27.81
2018-06-11T10:04:06.693Z,27.87
2018-06-11T10:06:35.205Z,28.06
2018-06-11T10:09:04.181Z,28.08
2018-06-11T10:11:32.636Z,28.00
2018-06-11T10:14:01.137Z,28.21
2018-06-11T10:16:29.720Z,28.33
2018-06-11T10:18:58.225Z,28.41
2018-06-11T10:21:26.857Z,28.62
2018-06-11T10:23:55.476Z,28.75
2018-06-11T10:26:23.905Z,28.73
2018-06-11T10:28:52.494Z,28.68
2018-06-11T10:31:20.975Z,28.20
2018-06-11T10:33:49.704Z,28.26
2018-06-11T10:36:18.229Z,28.21
2018-06-11T10:38:46.650Z,28.23
2018-06-11T10:41:16.429Z,28.13
2018-06-11T10:43:44.885Z,28.00
2018-06-11T10:46:13.347Z,27.94
2018-06-11T10:48:42.791Z,27.88
2018-06-11T10:51:11.356Z,27.71
2018-06-11T10:53:39.802Z,27.59
2018-06-11T10:56:08.246Z,27.54
2018-06-11T10:58:36.828Z,27.56
2018-06-11T11:01:05.722Z,27.50
2018-06-11T11:03:34.303Z,27.45
2018-06-11T11:06:02.816Z,27.35
2018-06-11T11:08:31.332Z,27.36
2018-06-11T11:11:00.156Z,27.32
2018-06-11T11:13:28.741Z,27.38
2018-06-11T11:15:57.550Z,27.56
2018-06-11T11:18:26.291Z,27.81
2018-06-11T11:20:55.029Z,28.06
2018-06-11T11:23:23.559Z,28.29
2018-06-11T11:25:52.083Z,28.50
2018-06-11T11:28:20.565Z,28.65
2018-06-11T11:30:49.165Z,28.72
2018-06-11T11:33:17.835Z,27.85
2018-06-11T11:35:46.331Z,28.64
2018-06-11T11:38:15.297Z,28.67
2018-06-11T11:40:43.792Z,28.24
2018-06-11T11:43:12.405Z,28.43
2018-06-11T11:45:41.071Z,28.69
2018-06-11T11:48:10.179Z,28.72
2018-06-11T11:50:39.377Z,28.36
2018-06-11T11:53:07.799Z,28.86
2018-06-11T11:55:36.539Z,29.31
2018-06-11T11:58:05.156Z,29.23
2018-06-11T12:00:33.671Z,29.18
2018-06-11T12:03:02.231Z,29.07
2018-06-11T12:05:31.184Z,29.49
2018-06-11T12:07:59.739Z,29.73
2018-06-11T12:10:28.752Z,29.70
2018-06-11T12:12:57.261Z,29.78
2018-06-11T12:15:25.797Z,29.79
2018-06-11T12:17:54.274Z,29.84
2018-06-11T12:20:22.942Z,29.82
2018-06-11T12:22:51.413Z,29.96
2018-06-11T12:25:19.958Z,29.98
2018-06-11T12:27:48.405Z,29.83
2018-06-11T12:30:16.921Z,30.06
2018-06-11T12:32:45.625Z,30.22
2018-06-11T12:35:14.093Z,30.32
2018-06-11T12:37:42.823Z,30.20
2018-06-11T12:40:11.529Z,30.28
2018-06-11T12:42:39.986Z,30.07
2018-06-11T12:45:08.530Z,29.77
2018-06-11T12:47:37.147Z,29.99
2018-06-11T12:50:05.682Z,29.96
2018-06-11T12:52:34.244Z,29.84
2018-06-11T12:55:02.822Z,30.38
2018-06-11T12:57:31.290Z,30.45
2018-06-11T12:59:59.770Z,30.59
2018-06-11T13:02:28.257Z,30.73
2018-06-11T13:04:56.923Z,30.60
2018-06-11T13:07:25.552Z,30.51
2018-06-11T13:09:54.213Z,30.05
2018-06-11T13:12:22.811Z,30.32
2018-06-11T13:14:51.320Z,30.27
2018-06-11T13:17:19.877Z,30.11
2018-06-11T13:19:48.433Z,30.36
2018-06-11T13:22:17.073Z,30.90
2018-06-11T13:24:45.553Z,31.20
2018-06-11T13:27:14.149Z,31.07
2018-06-11T13:29:42.603Z,31.72
2018-06-11T13:32:11.150Z,32.44
2018-06-11T13:34:46.842Z,32.94
2018-06-11T13:37:15.410Z,32.69
2018-06-11T13:39:43.924Z,32.13
2018-06-11T13:42:12.542Z,32.03
2018-06-11T13:44:41.165Z,32.15
2018-06-11T13:47:09.645Z,32.34
2018-06-11T13:49:38.137Z,32.31
2018-06-11T13:52:07.284Z,31.80
2018-06-11T13:54:36.452Z,31.78
2018-06-11T13:57:05.132Z,32.07
2018-06-11T13:59:33.665Z,30.67
2018-06-11T14:02:02.164Z,30.63
2018-06-11T14:04:31.676Z,30.60
2018-06-11T14:07:00.498Z,30.95
2018-06-11T14:09:29.782Z,30.15
2018-06-11T14:11:58.278Z,30.42
2018-06-11T14:14:26.790Z,29.90
2018-06-11T14:16:55.965Z,30.27
2018-06-11T14:19:24.871Z,30.48
2018-06-11T14:21:53.772Z,30.17
2018-06-11T14:24:22.303Z,30.21
2018-06-11T14:26:50.718Z,29.97
2018-06-11T14:29:19.237Z,29.47
2018-06-11T14:31:47.779Z,29.34
2018-06-11T14:34:16.341Z,29.53
2018-06-11T14:36:44.945Z,29.70
2018-06-11T14:39:13.506Z,29.51
2018-06-11T14:41:42.073Z,29.70
2018-06-11T14:44:10.662Z,29.27
2018-06-11T14:46:39.818Z,29.09
2018-06-11T14:49:08.868Z,29.07
2018-06-11T14:51:37.740Z,29.14
2018-06-11T14:54:06.239Z,28.48
2018-06-11T14:56:34.712Z,28.71
2018-06-11T14:59:03.261Z,28.24
2018-06-11T15:01:31.696Z,28.40
2018-06-11T15:04:00.548Z,27.94
2018-06-11T15:06:29.942Z,27.92
2018-06-11T15:08:58.437Z,28.18
2018-06-11T15:11:26.923Z,28.10
2018-06-11T15:13:55.356Z,28.09
2018-06-11T15:16:23.878Z,27.72
2018-06-11T15:18:53.498Z,27.86
2018-06-11T15:21:21.996Z,27.34
2018-06-11T15:23:50.582Z,27.03
2018-06-11T15:26:19.107Z,27.46
2018-06-11T15:28:47.692Z,27.26
2018-06-11T15:31:16.285Z,26.95
2018-06-11T15:33:44.892Z,26.83
2018-06-11T15:36:13.474Z,26.79
2018-06-11T15:38:43.296Z,26.90
2018-06-11T15:41:12.574Z,26.71
2018-06-11T15:43:41.163Z,26.76
2018-06-11T15:46:09.749Z,27.09
2018-06-11T15:48:38.258Z,26.76
2018-06-11T15:51:06.976Z,26.58
2018-06-11T15:53:35.519Z,26.43
2018-06-11T15:56:05.158Z,26.40
2018-06-11T15:58:33.651Z,26.56
2018-06-11T16:01:02.249Z,26.37
2018-06-11T16:03:31.415Z,25.90
2018-06-11T16:06:00.156Z,25.80
2018-06-11T16:08:28.790Z,25.59
2018-06-11T16:10:57.417Z,25.36
2018-06-11T16:13:25.954Z,24.72
2018-06-11T16:15:55.639Z,25.12
2018-06-11T16:18:24.144Z,24.87
2018-06-11T16:20:52.635Z,25.21
2018-06-11T16:23:24.249Z,24.74
2018-06-11T16:25:54.536Z,24.70
2018-06-11T16:28:23.451Z,25.05
2018-06-11T16:30:51.933Z,25.03
2018-06-11T16:33:21.971Z,24.42
2018-06-11T16:35:50.551Z,24.04
2018-06-11T16:38:19.455Z,24.44
2018-06-11T16:40:48.027Z,24.25
2018-06-11T16:43:17.083Z,24.18
2018-06-11T16:45:46.116Z,24.10
2018-06-11T16:48:14.750Z,23.80
2018-06-11T16:50:43.364Z,23.31
2018-06-11T16:53:12.868Z,23.10
2018-06-11T16:55:41.434Z,23.72
2018-06-11T16:58:12.370Z,23.66
2018-06-11T17:00:41.342Z,23.72
2018-06-11T17:03:09.971Z,23.75
2018-06-11T17:05:38.554Z,23.49
2018-06-11T17:08:07.464Z,23.27
2018-06-11T17:10:36.103Z,23.76
2018-06-11T17:13:05.084Z,23.97
2018-06-11T17:15:33.876Z,23.91
2018-06-11T17:18:02.806Z,23.88
2018-06-11T17:20:31.830Z,23.79
2018-06-11T17:23:01.093Z,23.67
2018-06-11T17:25:30.727Z,23.69
2018-06-11T17:27:59.552Z,23.69
2018-06-11T17:30:28.127Z,23.44
2018-06-11T17:32:56.772Z,23.30
2018-06-11T17:35:26.653Z,23.61
2018-06-11T17:37:55.731Z,23.39
2018-06-11T17:40:24.557Z,23.40
2018-06-11T17:42:53.556Z,23.15
2018-06-11T17:45:22.166Z,23.48
2018-06-11T17:47:53.048Z,23.10
2018-06-11T17:50:22.510Z,23.55
2018-06-11T17:52:51.116Z,23.58
2018-06-11T17:55:20.679Z,23.63
2018-06-11T17:57:49.361Z,23.59
2018-06-11T18:00:19.051Z,23.27
2018-06-11T18:02:49.080Z,23.24
2018-06-11T18:05:18.185Z,23.04
2018-06-11T18:07:46.927Z,22.45
2018-06-11T18:10:16.297Z,22.68
2018-06-11T18:12:47.190Z,22.87
2018-06-11T18:15:16.063Z,23.14
2018-06-11T18:17:45.044Z,22.80
2018-06-11T18:20:13.585Z,22.75
2018-06-11T18:22:43.004Z,23.08
2018-06-11T18:25:11.770Z,23.11
2018-06-11T18:27:41.526Z,23.12
2018-06-11T18:30:10.054Z,23.24
2018-06-11T18:32:38.710Z,23.25
2018-06-11T18:35:07.288Z,23.02
2018-06-11T18:37:35.778Z,22.79
2018-06-11T18:40:04.735Z,22.87
2018-06-11T18:42:34.145Z,22.63
2018-06-11T18:45:03.379Z,22.48
2018-06-11T18:47:32.195Z,22.73
2018-06-11T18:50:01.133Z,22.95
2018-06-11T18:52:30.052Z,22.91
2018-06-11T18:54:58.702Z,22.58
2018-06-11T18:57:27.700Z,22.39
2018-06-11T18:59:56.226Z,22.12
2018-06-11T19:02:25.661Z,22.11
2018-06-11T19:04:54.307Z,21.84
2018-06-11T19:07:22.881Z,22.38
2018-06-11T19:09:52.651Z,22.16
2018-06-11T19:12:21.238Z,22.61
2018-06-11T19:14:53.464Z,22.84
2018-06-11T19:17:22.608Z,22.98
2018-06-11T19:19:51.552Z,22.60
2018-06-11T19:22:20.770Z,22.85
2018-06-11T19:24:49.706Z,22.93
2018-06-11T19:27:18.705Z,22.93
2018-06-11T19:29:50.720Z,22.95
2018-06-11T19:32:19.236Z,22.94
2018-06-11T19:34:47.788Z,22.98
2018-06-11T19:37:16.979Z,23.00
2018-06-11T19:39:45.529Z,23.00
2018-06-11T19:42:14.145Z,23.02
2018-06-11T19:44:42.637Z,22.95
2018-06-11T19:47:11.304Z,22.83
2018-06-11T19:49:39.927Z,22.76
2018-06-11T19:52:08.830Z,22.64
2018-06-11T19:54:37.356Z,22.60
2018-06-11T19:57:06.001Z,22.48
2018-06-11T19:59:34.465Z,22.49
2018-06-11T20:02:03.111Z,22.37
2018-06-11T20:04:31.560Z,22.29
2018-06-11T20:07:00.178Z,22.24
2018-06-11T20:09:28.659Z,22.09
2018-06-11T20:11:57.173Z,22.18
2018-06-11T20:14:25.616Z,22.14
2018-06-11T20:16:54.086Z,22.18
2018-06-11T20:19:23.188Z,22.18
2018-06-11T20:21:51.605Z,22.23
2018-06-11T20:24:20.059Z,22.34
2018-06-11T20:26:48.522Z,22.34
2018-06-11T20:29:17.022Z,22.32
2018-06-11T20:31:45.491Z,22.29
2018-06-11T20:34:13.985Z,22.36
2018-06-11T20:36:42.481Z,22.36
2018-06-11T20:39:11.706Z,22.36
2018-06-11T20:41:40.338Z,22.33
2018-06-11T20:44:08.935Z,22.32
2018-06-11T20:46:37.429Z,22.31
2018-06-11T20:49:05.991Z,22.26
2018-06-11T20:51:34.448Z,22.17
2018-06-11T20:54:03.014Z,21.84
2018-06-11T20:56:31.558Z,21.84
2018-06-11T20:59:00.209Z,21.77
2018-06-11T21:01:28.683Z,21.72
2018-06-11T21:03:58.464Z,21.72
2018-06-11T21:06:26.970Z,21.69
2018-06-11T21:08:55.458Z,21.66
2018-06-11T21:11:23.964Z,21.66
2018-06-11T21:13:52.465Z,21.68
2018-06-11T21:16:20.952Z,21.65
2018-06-11T21:18:49.431Z,21.59
2018-06-11T21:21:17.901Z,21.32
2018-06-11T21:23:46.410Z,21.33
2018-06-11T21:26:14.895Z,21.37
2018-06-11T21:28:43.323Z,21.41
2018-06-11T21:31:11.823Z,21.13
2018-06-11T21:33:41.072Z,21.22
2018-06-11T21:36:09.621Z,21.26
2018-06-11T21:38:38.145Z,21.29
2018-06-11T21:41:06.819Z,21.34
2018-06-11T21:43:35.280Z,21.35
2018-06-11T21:46:03.933Z,21.37
2018-06-11T21:48:32.442Z,21.42
2018-06-11T21:51:01.009Z,21.37
2018-06-11T21:53:29.533Z,21.27
2018-06-11T21:55:58.023Z,21.00
2018-06-11T21:58:26.573Z,20.92
2018-06-11T22:00:55.033Z,20.87
2018-06-11T22:03:23.519Z,20.85
2018-06-11T22:05:51.920Z,20.89
2018-06-11T22:08:20.465Z,20.84
2018-06-11T22:10:48.958Z,20.90
2018-06-11T22:13:17.421Z,20.96
2018-06-11T22:15:45.867Z,20.98
2018-06-11T22:18:14.261Z,20.98
2018-06-11T22:20:42.746Z,20.94
2018-06-11T22:23:11.203Z,20.84
2018-06-11T22:25:39.849Z,20.48
2018-06-11T22:28:08.327Z,20.45
2018-06-11T22:30:36.880Z,20.58
2018-06-11T22:33:05.282Z,20.58
2018-06-11T22:35:33.779Z,20.64
2018-06-11T22:38:02.228Z,20.71
2018-06-11T22:40:30.752Z,20.76
2018-06-11T22:42:59.156Z,20.84
2018-06-11T22:45:27.605Z,20.84
2018-06-11T22:47:56.094Z,20.88
2018-06-11T22:50:24.509Z,20.93
2018-06-11T22:52:52.964Z,20.95
2018-06-11T22:55:21.443Z,20.95
2018-06-11T22:57:49.866Z,20.98
2018-06-11T23:00:28.967Z,20.98
2018-06-11T23:02:57.424Z,21.00
2018-06-11T23:05:25.842Z,20.99
2018-06-11T23:07:54.289Z,20.95
2018-06-11T23:10:22.706Z,20.92
2018-06-11T23:12:51.221Z,20.99
2018-06-11T23:15:19.731Z,21.01
2018-06-11T23:17:48.148Z,20.82
2018-06-11T23:20:16.586Z,20.72
2018-06-11T23:22:45.009Z,20.81
2018-06-11T23:25:13.789Z,20.74
2018-06-11T23:27:42.203Z,20.56
2018-06-11T23:30:10.698Z,20.60
2018-06-11T23:32:39.176Z,20.55
2018-06-11T23:35:07.597Z,20.52
2018-06-11T23:37:36.096Z,20.39
2018-06-11T23:40:04.794Z,20.18
2018-06-11T23:42:33.268Z,19.95
2018-06-11T23:45:01.715Z,19.98
2018-06-11T23:47:30.821Z,19.66
2018-06-11T23:49:59.306Z,19.84
2018-06-11T23:52:27.718Z,19.88
2018-06-11T23:54:56.136Z,20.00
2018-06-11T23:57:24.641Z,19.99
2018-06-11T23:59:53.051Z,20.06
